sensor_id;sensor_type;location;lat;lon;timestamp;P1;durP1;ratioP1;P2;durP2;ratioP2
65597;SDS011;52267;51.984;20.956;2023-04-25T00:00:52;20.40;;;13.00;;
65597;SDS011;52267;51.984;20.956;2023-04-25T00:03:22;19.60;;;13.90;;
65597;SDS011;52267;51.984;20.956;2023-04-25T00:05:51;20.20;;;13.80;;
65597;SDS011;52267;51.984;20.956;2023-04-25T00:08:18;18.30;;;12.90;;
65597;SDS011;52267;51.984;20.956;2023-04-25T00:10:46;18.70;;;13.90;;
65597;SDS011;52267;51.984;20.956;2023-04-25T00:13:13;17.00;;;13.00;;
65597;SDS011;52267;51.984;20.956;2023-04-25T00:15:40;21.40;;;15.30;;
65597;SDS011;52267;51.984;20.956;2023-04-25T00:18:08;19.30;;;14.30;;
65597;SDS011;52267;51.984;20.956;2023-04-25T00:20:35;22.00;;;14.80;;
65597;SDS011;52267;51.984;20.956;2023-04-25T00:23:02;19.50;;;13.50;;
65597;SDS011;52267;51.984;20.956;2023-04-25T00:25:29;17.50;;;13.00;;
65597;SDS011;52267;51.984;20.956;2023-04-25T00:27:56;19.60;;;14.10;;
65597;SDS011;52267;51.984;20.956;2023-04-25T00:30:23;18.10;;;13.90;;
65597;SDS011;52267;51.984;20.956;2023-04-25T00:32:50;17.80;;;14.10;;
65597;SDS011;52267;51.984;20.956;2023-04-25T00:35:18;22.80;;;14.70;;
65597;SDS011;52267;51.984;20.956;2023-04-25T00:37:45;21.40;;;14.10;;
65597;SDS011;52267;51.984;20.956;2023-04-25T00:40:12;21.30;;;13.90;;
65597;SDS011;52267;51.984;20.956;2023-04-25T00:42:39;21.80;;;15.00;;
65597;SDS011;52267;51.984;20.956;2023-04-25T00:45:07;22.10;;;15.00;;
65597;SDS011;52267;51.984;20.956;2023-04-25T00:47:36;19.20;;;14.60;;
65597;SDS011;52267;51.984;20.956;2023-04-25T00:50:03;22.70;;;14.80;;
65597;SDS011;52267;51.984;20.956;2023-04-25T00:52:30;22.30;;;12.90;;
65597;SDS011;52267;51.984;20.956;2023-04-25T00:54:58;21.10;;;14.50;;
65597;SDS011;52267;51.984;20.956;2023-04-25T00:57:26;21.40;;;15.30;;
65597;SDS011;52267;51.984;20.956;2023-04-25T00:59:55;22.80;;;14.90;;
65597;SDS011;52267;51.984;20.956;2023-04-25T01:02:22;21.90;;;14.30;;
65597;SDS011;52267;51.984;20.956;2023-04-25T01:04:49;21.00;;;13.00;;
65597;SDS011;52267;51.984;20.956;2023-04-25T01:07:16;17.60;;;13.40;;
65597;SDS011;52267;51.984;20.956;2023-04-25T01:09:43;21.70;;;14.50;;
65597;SDS011;52267;51.984;20.956;2023-04-25T01:12:11;19.90;;;14.40;;
65597;SDS011;52267;51.984;20.956;2023-04-25T01:14:38;20.40;;;14.20;;
65597;SDS011;52267;51.984;20.956;2023-04-25T01:17:05;22.50;;;14.80;;
65597;SDS011;52267;51.984;20.956;2023-04-25T01:19:34;19.70;;;13.80;;
65597;SDS011;52267;51.984;20.956;2023-04-25T01:22:02;22.60;;;15.20;;
65597;SDS011;52267;51.984;20.956;2023-04-25T01:24:33;21.00;;;14.70;;
65597;SDS011;52267;51.984;20.956;2023-04-25T01:27:00;20.50;;;14.00;;
65597;SDS011;52267;51.984;20.956;2023-04-25T01:29:28;21.30;;;15.10;;
65597;SDS011;52267;51.984;20.956;2023-04-25T01:31:56;24.80;;;16.30;;
65597;SDS011;52267;51.984;20.956;2023-04-25T01:34:25;26.50;;;16.10;;
65597;SDS011;52267;51.984;20.956;2023-04-25T01:36:52;27.60;;;16.60;;
65597;SDS011;52267;51.984;20.956;2023-04-25T01:39:20;25.10;;;15.80;;
65597;SDS011;52267;51.984;20.956;2023-04-25T01:41:47;24.30;;;15.70;;
65597;SDS011;52267;51.984;20.956;2023-04-25T01:44:15;23.70;;;15.50;;
65597;SDS011;52267;51.984;20.956;2023-04-25T01:46:42;21.10;;;14.50;;
65597;SDS011;52267;51.984;20.956;2023-04-25T01:49:09;24.20;;;16.00;;
65597;SDS011;52267;51.984;20.956;2023-04-25T01:51:36;24.30;;;16.20;;
65597;SDS011;52267;51.984;20.956;2023-04-25T01:54:03;22.80;;;15.80;;
65597;SDS011;52267;51.984;20.956;2023-04-25T01:56:31;20.80;;;14.10;;
65597;SDS011;52267;51.984;20.956;2023-04-25T01:58:59;24.50;;;16.20;;
65597;SDS011;52267;51.984;20.956;2023-04-25T02:01:26;26.90;;;16.70;;
65597;SDS011;52267;51.984;20.956;2023-04-25T02:03:53;22.70;;;15.60;;
65597;SDS011;52267;51.984;20.956;2023-04-25T02:06:20;22.30;;;15.60;;
65597;SDS011;52267;51.984;20.956;2023-04-25T02:08:47;28.60;;;17.60;;
65597;SDS011;52267;51.984;20.956;2023-04-25T02:11:14;27.50;;;16.80;;
65597;SDS011;52267;51.984;20.956;2023-04-25T02:13:41;35.20;;;20.40;;
65597;SDS011;52267;51.984;20.956;2023-04-25T02:16:08;27.50;;;16.90;;
65597;SDS011;52267;51.984;20.956;2023-04-25T02:18:35;28.20;;;17.90;;
65597;SDS011;52267;51.984;20.956;2023-04-25T02:21:04;31.20;;;18.70;;
65597;SDS011;52267;51.984;20.956;2023-04-25T02:23:31;22.40;;;14.60;;
65597;SDS011;52267;51.984;20.956;2023-04-25T02:25:58;24.50;;;14.90;;
65597;SDS011;52267;51.984;20.956;2023-04-25T02:28:25;20.70;;;14.60;;
65597;SDS011;52267;51.984;20.956;2023-04-25T02:30:52;21.80;;;15.10;;
65597;SDS011;52267;51.984;20.956;2023-04-25T02:33:19;23.50;;;15.40;;
65597;SDS011;52267;51.984;20.956;2023-04-25T02:35:47;24.90;;;15.50;;
65597;SDS011;52267;51.984;20.956;2023-04-25T02:38:14;22.60;;;15.00;;
65597;SDS011;52267;51.984;20.956;2023-04-25T02:40:41;19.80;;;13.00;;
65597;SDS011;52267;51.984;20.956;2023-04-25T02:43:08;18.80;;;13.20;;
65597;SDS011;52267;51.984;20.956;2023-04-25T02:45:35;19.90;;;12.80;;
65597;SDS011;52267;51.984;20.956;2023-04-25T02:48:03;18.20;;;12.80;;
65597;SDS011;52267;51.984;20.956;2023-04-25T02:50:30;18.50;;;12.30;;
65597;SDS011;52267;51.984;20.956;2023-04-25T02:52:57;17.10;;;12.20;;
65597;SDS011;52267;51.984;20.956;2023-04-25T02:55:24;15.50;;;11.10;;
65597;SDS011;52267;51.984;20.956;2023-04-25T02:57:51;20.40;;;11.40;;
65597;SDS011;52267;51.984;20.956;2023-04-25T03:00:18;15.40;;;10.10;;
65597;SDS011;52267;51.984;20.956;2023-04-25T03:02:45;12.90;;;8.80;;
65597;SDS011;52267;51.984;20.956;2023-04-25T03:05:12;16.00;;;8.40;;
65597;SDS011;52267;51.984;20.956;2023-04-25T03:07:39;14.50;;;8.40;;
65597;SDS011;52267;51.984;20.956;2023-04-25T03:10:07;13.90;;;9.90;;
65597;SDS011;52267;51.984;20.956;2023-04-25T03:12:34;10.80;;;8.10;;
65597;SDS011;52267;51.984;20.956;2023-04-25T03:15:01;13.40;;;8.00;;
65597;SDS011;52267;51.984;20.956;2023-04-25T03:17:29;11.80;;;7.30;;
65597;SDS011;52267;51.984;20.956;2023-04-25T03:19:57;12.70;;;7.50;;
65597;SDS011;52267;51.984;20.956;2023-04-25T03:22:24;10.90;;;7.20;;
65597;SDS011;52267;51.984;20.956;2023-04-25T03:24:51;11.40;;;6.70;;
65597;SDS011;52267;51.984;20.956;2023-04-25T03:27:18;10.70;;;6.80;;
65597;SDS011;52267;51.984;20.956;2023-04-25T03:29:45;9.70;;;6.50;;
65597;SDS011;52267;51.984;20.956;2023-04-25T03:32:12;10.70;;;6.80;;
65597;SDS011;52267;51.984;20.956;2023-04-25T03:34:39;10.50;;;6.00;;
65597;SDS011;52267;51.984;20.956;2023-04-25T03:37:06;8.80;;;6.50;;
65597;SDS011;52267;51.984;20.956;2023-04-25T03:39:33;8.80;;;5.30;;
65597;SDS011;52267;51.984;20.956;2023-04-25T03:42:00;9.50;;;5.60;;
65597;SDS011;52267;51.984;20.956;2023-04-25T03:44:27;7.90;;;5.60;;
65597;SDS011;52267;51.984;20.956;2023-04-25T03:46:54;10.60;;;6.60;;
65597;SDS011;52267;51.984;20.956;2023-04-25T03:49:21;10.40;;;5.50;;
65597;SDS011;52267;51.984;20.956;2023-04-25T03:51:48;9.10;;;5.40;;
65597;SDS011;52267;51.984;20.956;2023-04-25T03:54:15;10.00;;;5.40;;
65597;SDS011;52267;51.984;20.956;2023-04-25T03:56:42;6.60;;;5.00;;
65597;SDS011;52267;51.984;20.956;2023-04-25T03:59:09;8.20;;;5.30;;
65597;SDS011;52267;51.984;20.956;2023-04-25T04:01:36;9.90;;;6.90;;
65597;SDS011;52267;51.984;20.956;2023-04-25T04:04:03;8.00;;;5.40;;
65597;SDS011;52267;51.984;20.956;2023-04-25T04:06:30;8.30;;;5.70;;
65597;SDS011;52267;51.984;20.956;2023-04-25T04:08:57;7.50;;;5.00;;
65597;SDS011;52267;51.984;20.956;2023-04-25T04:11:24;6.90;;;5.00;;
65597;SDS011;52267;51.984;20.956;2023-04-25T04:13:52;8.20;;;5.10;;
65597;SDS011;52267;51.984;20.956;2023-04-25T04:16:19;8.80;;;5.20;;
65597;SDS011;52267;51.984;20.956;2023-04-25T04:18:46;9.50;;;5.70;;
65597;SDS011;52267;51.984;20.956;2023-04-25T04:21:13;10.00;;;5.60;;
65597;SDS011;52267;51.984;20.956;2023-04-25T04:23:40;9.30;;;5.90;;
65597;SDS011;52267;51.984;20.956;2023-04-25T04:26:07;9.20;;;5.40;;
65597;SDS011;52267;51.984;20.956;2023-04-25T04:28:35;10.20;;;6.90;;
65597;SDS011;52267;51.984;20.956;2023-04-25T04:31:02;9.70;;;6.10;;
65597;SDS011;52267;51.984;20.956;2023-04-25T04:33:30;9.90;;;6.40;;
65597;SDS011;52267;51.984;20.956;2023-04-25T04:35:57;9.00;;;5.90;;
65597;SDS011;52267;51.984;20.956;2023-04-25T04:38:24;9.40;;;6.50;;
65597;SDS011;52267;51.984;20.956;2023-04-25T04:40:51;8.90;;;6.50;;
65597;SDS011;52267;51.984;20.956;2023-04-25T04:43:19;10.10;;;6.70;;
65597;SDS011;52267;51.984;20.956;2023-04-25T04:45:46;9.10;;;6.60;;
65597;SDS011;52267;51.984;20.956;2023-04-25T04:48:14;9.50;;;7.20;;
65597;SDS011;52267;51.984;20.956;2023-04-25T04:50:43;9.90;;;7.40;;
65597;SDS011;52267;51.984;20.956;2023-04-25T04:53:13;11.50;;;8.10;;
65597;SDS011;52267;51.984;20.956;2023-04-25T04:55:40;9.50;;;7.30;;
65597;SDS011;52267;51.984;20.956;2023-04-25T04:58:08;9.70;;;7.20;;
65597;SDS011;52267;51.984;20.956;2023-04-25T05:00:35;11.60;;;8.30;;
65597;SDS011;52267;51.984;20.956;2023-04-25T05:03:02;10.00;;;7.30;;
65597;SDS011;52267;51.984;20.956;2023-04-25T05:05:29;10.90;;;8.60;;
65597;SDS011;52267;51.984;20.956;2023-04-25T05:07:56;9.30;;;7.40;;
65597;SDS011;52267;51.984;20.956;2023-04-25T05:10:23;11.60;;;8.40;;
65597;SDS011;52267;51.984;20.956;2023-04-25T05:12:50;10.70;;;8.00;;
65597;SDS011;52267;51.984;20.956;2023-04-25T05:15:17;11.10;;;7.30;;
65597;SDS011;52267;51.984;20.956;2023-04-25T05:17:44;10.20;;;6.70;;
65597;SDS011;52267;51.984;20.956;2023-04-25T05:20:11;12.20;;;7.90;;
65597;SDS011;52267;51.984;20.956;2023-04-25T05:22:40;10.80;;;8.50;;
65597;SDS011;52267;51.984;20.956;2023-04-25T05:25:08;12.30;;;9.50;;
65597;SDS011;52267;51.984;20.956;2023-04-25T05:27:36;9.60;;;7.00;;
65597;SDS011;52267;51.984;20.956;2023-04-25T05:30:04;9.30;;;7.20;;
65597;SDS011;52267;51.984;20.956;2023-04-25T05:32:32;10.20;;;8.40;;
65597;SDS011;52267;51.984;20.956;2023-04-25T05:34:59;13.70;;;9.70;;
65597;SDS011;52267;51.984;20.956;2023-04-25T05:37:26;8.80;;;6.90;;
65597;SDS011;52267;51.984;20.956;2023-04-25T05:39:53;14.30;;;8.80;;
65597;SDS011;52267;51.984;20.956;2023-04-25T05:42:20;12.90;;;9.70;;
65597;SDS011;52267;51.984;20.956;2023-04-25T05:44:47;15.30;;;11.10;;
65597;SDS011;52267;51.984;20.956;2023-04-25T05:47:14;14.50;;;10.70;;
65597;SDS011;52267;51.984;20.956;2023-04-25T05:49:41;15.80;;;11.30;;
65597;SDS011;52267;51.984;20.956;2023-04-25T05:52:08;15.70;;;11.40;;
65597;SDS011;52267;51.984;20.956;2023-04-25T05:54:36;14.90;;;9.90;;
65597;SDS011;52267;51.984;20.956;2023-04-25T05:57:03;13.20;;;9.20;;
65597;SDS011;52267;51.984;20.956;2023-04-25T05:59:30;12.10;;;7.90;;
65597;SDS011;52267;51.984;20.956;2023-04-25T06:01:57;15.40;;;11.00;;
65597;SDS011;52267;51.984;20.956;2023-04-25T06:04:25;10.20;;;7.20;;
65597;SDS011;52267;51.984;20.956;2023-04-25T06:06:52;10.90;;;8.00;;
65597;SDS011;52267;51.984;20.956;2023-04-25T06:09:19;10.90;;;7.70;;
65597;SDS011;52267;51.984;20.956;2023-04-25T06:11:46;7.50;;;5.10;;
65597;SDS011;52267;51.984;20.956;2023-04-25T06:14:13;13.20;;;8.50;;
65597;SDS011;52267;51.984;20.956;2023-04-25T06:16:40;12.20;;;8.10;;
65597;SDS011;52267;51.984;20.956;2023-04-25T06:19:07;10.50;;;8.20;;
65597;SDS011;52267;51.984;20.956;2023-04-25T06:21:34;12.70;;;9.60;;
65597;SDS011;52267;51.984;20.956;2023-04-25T06:24:01;10.30;;;7.70;;
65597;SDS011;52267;51.984;20.956;2023-04-25T06:26:28;12.80;;;9.10;;
65597;SDS011;52267;51.984;20.956;2023-04-25T06:28:55;13.30;;;8.00;;
65597;SDS011;52267;51.984;20.956;2023-04-25T06:31:22;11.60;;;9.00;;
65597;SDS011;52267;51.984;20.956;2023-04-25T06:33:49;11.40;;;8.80;;
65597;SDS011;52267;51.984;20.956;2023-04-25T06:36:16;13.60;;;10.00;;
65597;SDS011;52267;51.984;20.956;2023-04-25T06:38:43;12.40;;;8.10;;
65597;SDS011;52267;51.984;20.956;2023-04-25T06:41:10;11.90;;;8.50;;
65597;SDS011;52267;51.984;20.956;2023-04-25T06:43:37;10.90;;;8.50;;
65597;SDS011;52267;51.984;20.956;2023-04-25T06:46:04;11.60;;;8.80;;
65597;SDS011;52267;51.984;20.956;2023-04-25T06:48:31;12.50;;;9.10;;
65597;SDS011;52267;51.984;20.956;2023-04-25T06:50:58;13.80;;;10.20;;
65597;SDS011;52267;51.984;20.956;2023-04-25T06:53:25;13.30;;;9.70;;
65597;SDS011;52267;51.984;20.956;2023-04-25T06:55:52;13.00;;;9.60;;
65597;SDS011;52267;51.984;20.956;2023-04-25T06:58:19;11.70;;;9.20;;
65597;SDS011;52267;51.984;20.956;2023-04-25T07:00:46;12.30;;;7.90;;
65597;SDS011;52267;51.984;20.956;2023-04-25T07:03:13;10.90;;;8.70;;
65597;SDS011;52267;51.984;20.956;2023-04-25T07:05:41;13.70;;;8.90;;
65597;SDS011;52267;51.984;20.956;2023-04-25T07:08:08;10.20;;;7.90;;
65597;SDS011;52267;51.984;20.956;2023-04-25T07:10:35;9.10;;;7.00;;
65597;SDS011;52267;51.984;20.956;2023-04-25T07:13:02;10.10;;;7.60;;
65597;SDS011;52267;51.984;20.956;2023-04-25T07:15:29;11.40;;;8.10;;
65597;SDS011;52267;51.984;20.956;2023-04-25T07:17:56;10.70;;;9.10;;
65597;SDS011;52267;51.984;20.956;2023-04-25T07:20:23;10.50;;;8.00;;
65597;SDS011;52267;51.984;20.956;2023-04-25T07:22:50;10.40;;;8.10;;
65597;SDS011;52267;51.984;20.956;2023-04-25T07:25:18;14.70;;;10.40;;
65597;SDS011;52267;51.984;20.956;2023-04-25T07:27:45;11.90;;;8.70;;
65597;SDS011;52267;51.984;20.956;2023-04-25T07:30:12;11.90;;;9.10;;
65597;SDS011;52267;51.984;20.956;2023-04-25T07:32:39;11.50;;;8.40;;
65597;SDS011;52267;51.984;20.956;2023-04-25T07:35:07;11.00;;;7.40;;
65597;SDS011;52267;51.984;20.956;2023-04-25T07:37:35;8.90;;;6.90;;
65597;SDS011;52267;51.984;20.956;2023-04-25T07:40:03;9.10;;;7.10;;
65597;SDS011;52267;51.984;20.956;2023-04-25T07:42:31;8.40;;;6.80;;
65597;SDS011;52267;51.984;20.956;2023-04-25T07:44:58;10.10;;;7.50;;
65597;SDS011;52267;51.984;20.956;2023-04-25T07:47:26;8.60;;;6.50;;
65597;SDS011;52267;51.984;20.956;2023-04-25T07:49:53;8.30;;;6.30;;
65597;SDS011;52267;51.984;20.956;2023-04-25T07:52:20;11.00;;;7.50;;
65597;SDS011;52267;51.984;20.956;2023-04-25T07:54:48;9.40;;;6.80;;
65597;SDS011;52267;51.984;20.956;2023-04-25T07:57:15;8.50;;;6.70;;
65597;SDS011;52267;51.984;20.956;2023-04-25T07:59:43;9.80;;;6.80;;
65597;SDS011;52267;51.984;20.956;2023-04-25T08:02:10;10.30;;;6.40;;
65597;SDS011;52267;51.984;20.956;2023-04-25T08:04:37;8.00;;;5.90;;
65597;SDS011;52267;51.984;20.956;2023-04-25T08:07:04;8.10;;;5.70;;
65597;SDS011;52267;51.984;20.956;2023-04-25T08:09:32;8.60;;;6.00;;
65597;SDS011;52267;51.984;20.956;2023-04-25T08:12:03;7.70;;;5.70;;
65597;SDS011;52267;51.984;20.956;2023-04-25T08:14:31;7.00;;;5.50;;
65597;SDS011;52267;51.984;20.956;2023-04-25T08:17:03;8.70;;;5.40;;
65597;SDS011;52267;51.984;20.956;2023-04-25T08:19:30;6.20;;;4.00;;
65597;SDS011;52267;51.984;20.956;2023-04-25T08:21:57;8.30;;;5.60;;
65597;SDS011;52267;51.984;20.956;2023-04-25T08:24:24;6.60;;;4.80;;
65597;SDS011;52267;51.984;20.956;2023-04-25T08:26:51;9.10;;;6.90;;
65597;SDS011;52267;51.984;20.956;2023-04-25T08:29:19;7.10;;;4.80;;
65597;SDS011;52267;51.984;20.956;2023-04-25T08:31:46;7.20;;;5.20;;
65597;SDS011;52267;51.984;20.956;2023-04-25T08:34:13;7.60;;;5.10;;
65597;SDS011;52267;51.984;20.956;2023-04-25T08:36:40;9.10;;;5.40;;
65597;SDS011;52267;51.984;20.956;2023-04-25T08:39:07;7.80;;;5.20;;
65597;SDS011;52267;51.984;20.956;2023-04-25T08:41:36;6.90;;;4.90;;
65597;SDS011;52267;51.984;20.956;2023-04-25T08:44:05;9.90;;;5.90;;
65597;SDS011;52267;51.984;20.956;2023-04-25T08:46:32;10.20;;;5.40;;
65597;SDS011;52267;51.984;20.956;2023-04-25T08:49:02;6.40;;;4.70;;
65597;SDS011;52267;51.984;20.956;2023-04-25T08:51:33;7.80;;;4.70;;
65597;SDS011;52267;51.984;20.956;2023-04-25T08:54:12;5.00;;;3.50;;
65597;SDS011;52267;51.984;20.956;2023-04-25T08:56:44;7.10;;;4.70;;
65597;SDS011;52267;51.984;20.956;2023-04-25T08:59:12;9.40;;;6.60;;
65597;SDS011;52267;51.984;20.956;2023-04-25T09:01:39;9.80;;;6.30;;
65597;SDS011;52267;51.984;20.956;2023-04-25T09:04:06;7.90;;;5.90;;
65597;SDS011;52267;51.984;20.956;2023-04-25T09:06:34;9.30;;;5.90;;
65597;SDS011;52267;51.984;20.956;2023-04-25T09:09:06;7.40;;;5.60;;
65597;SDS011;52267;51.984;20.956;2023-04-25T09:11:35;6.60;;;4.80;;
65597;SDS011;52267;51.984;20.956;2023-04-25T09:14:21;8.30;;;5.20;;
65597;SDS011;52267;51.984;20.956;2023-04-25T09:21:58;8.90;;;6.70;;
65597;SDS011;52267;51.984;20.956;2023-04-25T09:24:40;8.80;;;6.30;;
65597;SDS011;52267;51.984;20.956;2023-04-25T09:27:18;9.20;;;6.50;;
65597;SDS011;52267;51.984;20.956;2023-04-25T09:29:46;9.10;;;6.60;;
65597;SDS011;52267;51.984;20.956;2023-04-25T09:32:23;8.00;;;5.70;;
65597;SDS011;52267;51.984;20.956;2023-04-25T09:34:52;8.70;;;5.90;;
65597;SDS011;52267;51.984;20.956;2023-04-25T09:37:28;9.50;;;6.50;;
65597;SDS011;52267;51.984;20.956;2023-04-25T09:39:58;10.40;;;7.30;;
65597;SDS011;52267;51.984;20.956;2023-04-25T09:42:27;10.10;;;6.80;;
65597;SDS011;52267;51.984;20.956;2023-04-25T09:44:56;9.70;;;7.20;;
65597;SDS011;52267;51.984;20.956;2023-04-25T09:47:26;7.90;;;5.70;;
65597;SDS011;52267;51.984;20.956;2023-04-25T09:49:54;9.40;;;6.80;;
65597;SDS011;52267;51.984;20.956;2023-04-25T09:52:23;8.80;;;6.40;;
65597;SDS011;52267;51.984;20.956;2023-04-25T09:54:51;8.50;;;6.70;;
65597;SDS011;52267;51.984;20.956;2023-04-25T09:57:20;8.80;;;6.30;;
65597;SDS011;52267;51.984;20.956;2023-04-25T09:59:54;9.70;;;6.80;;
65597;SDS011;52267;51.984;20.956;2023-04-25T10:02:24;9.90;;;6.00;;
65597;SDS011;52267;51.984;20.956;2023-04-25T10:04:53;7.90;;;5.70;;
65597;SDS011;52267;51.984;20.956;2023-04-25T10:07:26;9.30;;;6.10;;
65597;SDS011;52267;51.984;20.956;2023-04-25T10:10:04;8.50;;;6.50;;
65597;SDS011;52267;51.984;20.956;2023-04-25T10:12:33;10.70;;;7.20;;
65597;SDS011;52267;51.984;20.956;2023-04-25T10:15:01;8.80;;;6.20;;
65597;SDS011;52267;51.984;20.956;2023-04-25T10:17:29;9.40;;;6.20;;
65597;SDS011;52267;51.984;20.956;2023-04-25T10:19:58;9.30;;;6.00;;
65597;SDS011;52267;51.984;20.956;2023-04-25T10:22:32;10.10;;;6.80;;
65597;SDS011;52267;51.984;20.956;2023-04-25T10:25:04;13.40;;;7.70;;
65597;SDS011;52267;51.984;20.956;2023-04-25T10:27:34;8.90;;;6.60;;
65597;SDS011;52267;51.984;20.956;2023-04-25T10:30:05;13.00;;;7.80;;
65597;SDS011;52267;51.984;20.956;2023-04-25T10:32:37;12.20;;;8.20;;
65597;SDS011;52267;51.984;20.956;2023-04-25T10:35:15;11.60;;;7.70;;
65597;SDS011;52267;51.984;20.956;2023-04-25T10:37:59;11.90;;;8.00;;
65597;SDS011;52267;51.984;20.956;2023-04-25T10:40:27;10.90;;;7.40;;
65597;SDS011;52267;51.984;20.956;2023-04-25T10:42:54;11.60;;;8.60;;
65597;SDS011;52267;51.984;20.956;2023-04-25T10:45:22;10.60;;;7.60;;
65597;SDS011;52267;51.984;20.956;2023-04-25T10:47:49;11.50;;;8.30;;
65597;SDS011;52267;51.984;20.956;2023-04-25T10:50:17;10.10;;;7.10;;
65597;SDS011;52267;51.984;20.956;2023-04-25T10:52:44;9.40;;;6.50;;
65597;SDS011;52267;51.984;20.956;2023-04-25T10:55:11;11.00;;;7.80;;
65597;SDS011;52267;51.984;20.956;2023-04-25T10:57:43;9.80;;;7.20;;
65597;SDS011;52267;51.984;20.956;2023-04-25T11:00:17;10.40;;;7.10;;
65597;SDS011;52267;51.984;20.956;2023-04-25T11:02:53;9.80;;;7.20;;
65597;SDS011;52267;51.984;20.956;2023-04-25T11:05:32;11.80;;;7.90;;
65597;SDS011;52267;51.984;20.956;2023-04-25T11:08:01;11.60;;;7.20;;
65597;SDS011;52267;51.984;20.956;2023-04-25T11:10:31;8.70;;;6.30;;
65597;SDS011;52267;51.984;20.956;2023-04-25T11:12:59;10.40;;;7.80;;
65597;SDS011;52267;51.984;20.956;2023-04-25T11:15:27;9.20;;;6.30;;
65597;SDS011;52267;51.984;20.956;2023-04-25T11:17:55;10.90;;;6.50;;
65597;SDS011;52267;51.984;20.956;2023-04-25T11:20:24;9.10;;;6.70;;
65597;SDS011;52267;51.984;20.956;2023-04-25T11:22:52;10.20;;;6.20;;
65597;SDS011;52267;51.984;20.956;2023-04-25T11:25:19;9.40;;;6.10;;
65597;SDS011;52267;51.984;20.956;2023-04-25T11:27:56;10.00;;;5.60;;
65597;SDS011;52267;51.984;20.956;2023-04-25T11:30:25;7.10;;;5.60;;
65597;SDS011;52267;51.984;20.956;2023-04-25T11:32:53;8.80;;;5.60;;
65597;SDS011;52267;51.984;20.956;2023-04-25T11:35:20;7.70;;;5.90;;
65597;SDS011;52267;51.984;20.956;2023-04-25T11:37:49;7.00;;;4.80;;
65597;SDS011;52267;51.984;20.956;2023-04-25T11:40:16;6.60;;;4.80;;
65597;SDS011;52267;51.984;20.956;2023-04-25T11:42:46;7.70;;;4.80;;
65597;SDS011;52267;51.984;20.956;2023-04-25T11:45:14;6.90;;;4.50;;
65597;SDS011;52267;51.984;20.956;2023-04-25T11:47:41;7.50;;;5.50;;
65597;SDS011;52267;51.984;20.956;2023-04-25T11:50:09;6.40;;;4.70;;
65597;SDS011;52267;51.984;20.956;2023-04-25T11:52:43;6.20;;;3.90;;
65597;SDS011;52267;51.984;20.956;2023-04-25T11:55:18;5.70;;;4.10;;
65597;SDS011;52267;51.984;20.956;2023-04-25T11:57:48;8.80;;;6.00;;
65597;SDS011;52267;51.984;20.956;2023-04-25T12:00:18;8.50;;;6.40;;
65597;SDS011;52267;51.984;20.956;2023-04-25T12:02:54;6.80;;;5.50;;
65597;SDS011;52267;51.984;20.956;2023-04-25T12:05:27;7.70;;;4.80;;
65597;SDS011;52267;51.984;20.956;2023-04-25T12:07:56;7.70;;;5.00;;
65597;SDS011;52267;51.984;20.956;2023-04-25T12:10:24;6.70;;;4.80;;
65597;SDS011;52267;51.984;20.956;2023-04-25T12:12:52;9.30;;;5.70;;
65597;SDS011;52267;51.984;20.956;2023-04-25T12:15:25;8.10;;;5.20;;
65597;SDS011;52267;51.984;20.956;2023-04-25T12:17:53;8.60;;;5.80;;
65597;SDS011;52267;51.984;20.956;2023-04-25T12:20:24;6.10;;;4.20;;
65597;SDS011;52267;51.984;20.956;2023-04-25T12:22:52;7.60;;;5.20;;
65597;SDS011;52267;51.984;20.956;2023-04-25T12:25:40;10.20;;;5.00;;
65597;SDS011;52267;51.984;20.956;2023-04-25T12:28:15;6.50;;;4.40;;
65597;SDS011;52267;51.984;20.956;2023-04-25T12:31:04;7.60;;;4.40;;
65597;SDS011;52267;51.984;20.956;2023-04-25T12:33:34;5.50;;;4.10;;
65597;SDS011;52267;51.984;20.956;2023-04-25T12:36:05;7.40;;;4.60;;
65597;SDS011;52267;51.984;20.956;2023-04-25T12:38:41;6.60;;;4.00;;
65597;SDS011;52267;51.984;20.956;2023-04-25T12:41:09;5.70;;;4.00;;
65597;SDS011;52267;51.984;20.956;2023-04-25T12:43:36;7.40;;;4.60;;
65597;SDS011;52267;51.984;20.956;2023-04-25T12:46:03;6.70;;;4.40;;
65597;SDS011;52267;51.984;20.956;2023-04-25T12:48:30;7.60;;;5.10;;
65597;SDS011;52267;51.984;20.956;2023-04-25T12:50:57;6.30;;;5.00;;
65597;SDS011;52267;51.984;20.956;2023-04-25T12:53:25;7.20;;;4.30;;
65597;SDS011;52267;51.984;20.956;2023-04-25T12:55:52;7.20;;;4.50;;
65597;SDS011;52267;51.984;20.956;2023-04-25T12:58:19;7.40;;;5.40;;
65597;SDS011;52267;51.984;20.956;2023-04-25T13:00:46;8.20;;;5.40;;
65597;SDS011;52267;51.984;20.956;2023-04-25T13:03:14;4.90;;;3.80;;
65597;SDS011;52267;51.984;20.956;2023-04-25T13:05:41;7.20;;;4.20;;
65597;SDS011;52267;51.984;20.956;2023-04-25T13:08:09;7.10;;;4.40;;
65597;SDS011;52267;51.984;20.956;2023-04-25T13:10:36;6.30;;;4.30;;
65597;SDS011;52267;51.984;20.956;2023-04-25T13:13:04;6.20;;;4.80;;
65597;SDS011;52267;51.984;20.956;2023-04-25T13:15:31;7.80;;;4.90;;
65597;SDS011;52267;51.984;20.956;2023-04-25T13:17:59;7.30;;;4.80;;
65597;SDS011;52267;51.984;20.956;2023-04-25T13:20:26;6.70;;;4.90;;
65597;SDS011;52267;51.984;20.956;2023-04-25T13:22:53;7.80;;;5.60;;
65597;SDS011;52267;51.984;20.956;2023-04-25T13:25:20;7.70;;;5.30;;
65597;SDS011;52267;51.984;20.956;2023-04-25T13:27:48;7.10;;;5.10;;
65597;SDS011;52267;51.984;20.956;2023-04-25T13:30:15;9.40;;;5.90;;
65597;SDS011;52267;51.984;20.956;2023-04-25T13:32:42;9.50;;;5.70;;
65597;SDS011;52267;51.984;20.956;2023-04-25T13:35:12;8.00;;;6.00;;
65597;SDS011;52267;51.984;20.956;2023-04-25T13:37:40;9.20;;;6.60;;
65597;SDS011;52267;51.984;20.956;2023-04-25T13:40:09;9.00;;;6.30;;
65597;SDS011;52267;51.984;20.956;2023-04-25T13:42:38;10.30;;;6.90;;
65597;SDS011;52267;51.984;20.956;2023-04-25T13:45:07;9.30;;;6.90;;
65597;SDS011;52267;51.984;20.956;2023-04-25T13:47:34;9.90;;;6.90;;
65597;SDS011;52267;51.984;20.956;2023-04-25T13:50:03;9.60;;;7.50;;
65597;SDS011;52267;51.984;20.956;2023-04-25T13:52:32;7.50;;;5.80;;
65597;SDS011;52267;51.984;20.956;2023-04-25T13:54:59;8.10;;;5.60;;
65597;SDS011;52267;51.984;20.956;2023-04-25T13:57:27;9.40;;;6.40;;
65597;SDS011;52267;51.984;20.956;2023-04-25T13:59:54;10.90;;;7.40;;
65597;SDS011;52267;51.984;20.956;2023-04-25T14:02:21;9.00;;;7.10;;
65597;SDS011;52267;51.984;20.956;2023-04-25T14:04:49;10.60;;;7.40;;
65597;SDS011;52267;51.984;20.956;2023-04-25T14:07:17;9.90;;;6.40;;
65597;SDS011;52267;51.984;20.956;2023-04-25T14:09:45;10.00;;;6.70;;
65597;SDS011;52267;51.984;20.956;2023-04-25T14:12:13;8.30;;;6.20;;
65597;SDS011;52267;51.984;20.956;2023-04-25T14:14:40;9.20;;;6.90;;
65597;SDS011;52267;51.984;20.956;2023-04-25T14:17:08;8.70;;;6.60;;
65597;SDS011;52267;51.984;20.956;2023-04-25T14:19:35;9.30;;;6.60;;
65597;SDS011;52267;51.984;20.956;2023-04-25T14:22:05;9.30;;;7.20;;
65597;SDS011;52267;51.984;20.956;2023-04-25T14:24:32;10.00;;;7.10;;
65597;SDS011;52267;51.984;20.956;2023-04-25T14:26:59;11.00;;;7.00;;
65597;SDS011;52267;51.984;20.956;2023-04-25T14:29:27;11.50;;;7.60;;
65597;SDS011;52267;51.984;20.956;2023-04-25T14:31:54;10.20;;;7.10;;
65597;SDS011;52267;51.984;20.956;2023-04-25T14:34:23;10.40;;;8.20;;